sensor_id;sensor_type;location;lat;lon;timestamp;pressure;altitude;pressure_sealevel;temperature;humidity
48517;BME280;34310;51.904;4.256;2023-08-17T00:00:30;102185.53;;;25.55;50.98
48517;BME280;34310;51.904;4.256;2023-08-17T00:02:57;102185.53;;;25.55;51.23
48517;BME280;34310;51.904;4.256;2023-08-17T00:05:23;102192.56;;;25.54;51.25
48517;BME280;34310;51.904;4.256;2023-08-17T00:07:50;102190.81;;;25.55;51.22
48517;BME280;34310;51.904;4.256;2023-08-17T00:10:16;102168.41;;;25.44;51.21
48517;BME280;34310;51.904;4.256;2023-08-17T00:12:44;102189.78;;;25.50;51.06
48517;BME280;34310;51.904;4.256;2023-08-17T00:15:10;102193.34;;;25.52;51.31
48517;BME280;34310;51.904;4.256;2023-08-17T00:17:37;102188.91;;;25.51;50.96
48517;BME280;34310;51.904;4.256;2023-08-17T00:20:04;102185.25;;;25.46;51.00
48517;BME280;34310;51.904;4.256;2023-08-17T00:22:30;102200.34;;;25.50;51.10
48517;BME280;34310;51.904;4.256;2023-08-17T00:24:57;102187.88;;;25.46;51.17
48517;BME280;34310;51.904;4.256;2023-08-17T00:27:23;102196.75;;;25.48;51.31
48517;BME280;34310;51.904;4.256;2023-08-17T00:29:50;102185.97;;;25.42;50.97
48517;BME280;34310;51.904;4.256;2023-08-17T00:32:17;102189.56;;;25.44;51.17
48517;BME280;34310;51.904;4.256;2023-08-17T00:34:46;102194.91;;;25.45;51.12
48517;BME280;34310;51.904;4.256;2023-08-17T00:37:12;102186.88;;;25.42;51.07
48517;BME280;34310;51.904;4.256;2023-08-17T00:39:39;102177.03;;;25.38;51.24
48517;BME280;34310;51.904;4.256;2023-08-17T00:42:05;102183.38;;;25.43;51.29
48517;BME280;34310;51.904;4.256;2023-08-17T00:44:31;102185.06;;;25.41;51.36
48517;BME280;34310;51.904;4.256;2023-08-17T00:46:58;102183.31;;;25.42;51.29
48517;BME280;34310;51.904;4.256;2023-08-17T00:49:25;102180.63;;;25.40;51.30
48517;BME280;34310;51.904;4.256;2023-08-17T00:51:52;102183.28;;;25.40;51.02
48517;BME280;34310;51.904;4.256;2023-08-17T00:54:23;102169.88;;;25.34;51.42
48517;BME280;34310;51.904;4.256;2023-08-17T00:56:51;102178.00;;;25.40;51.32
48517;BME280;34310;51.904;4.256;2023-08-17T00:59:17;102184.06;;;25.38;51.51
48517;BME280;34310;51.904;4.256;2023-08-17T01:01:44;102182.28;;;25.37;51.53
48517;BME280;34310;51.904;4.256;2023-08-17T01:04:12;102187.56;;;25.37;51.29
48517;BME280;34310;51.904;4.256;2023-08-17T01:06:40;102185.78;;;25.36;51.52
48517;BME280;34310;51.904;4.256;2023-08-17T01:09:06;102178.56;;;25.30;51.36
48517;BME280;34310;51.904;4.256;2023-08-17T01:11:53;102182.19;;;25.33;51.50
48517;BME280;34310;51.904;4.256;2023-08-17T01:14:35;102183.09;;;25.34;51.28
48517;BME280;34310;51.904;4.256;2023-08-17T01:17:10;102180.41;;;25.32;51.23
48517;BME280;34310;51.904;4.256;2023-08-17T01:19:39;102175.00;;;25.29;51.43
48517;BME280;34310;51.904;4.256;2023-08-17T01:22:08;102172.38;;;25.29;51.58
48517;BME280;34310;51.904;4.256;2023-08-17T01:24:34;102180.31;;;25.29;51.58
48517;BME280;34310;51.904;4.256;2023-08-17T01:27:01;102170.38;;;25.22;51.38
48517;BME280;34310;51.904;4.256;2023-08-17T01:29:28;102189.09;;;25.28;51.44
48517;BME280;34310;51.904;4.256;2023-08-17T01:34:33;102182.00;;;25.27;51.46
48517;BME280;34310;51.904;4.256;2023-08-17T01:37:03;102182.84;;;25.26;51.37
48517;BME280;34310;51.904;4.256;2023-08-17T01:39:39;102183.69;;;25.25;51.66
48517;BME280;34310;51.904;4.256;2023-08-17T01:42:10;102173.13;;;25.25;51.69
48517;BME280;34310;51.904;4.256;2023-08-17T01:44:39;102170.44;;;25.24;51.58
48517;BME280;34310;51.904;4.256;2023-08-17T01:47:06;102167.78;;;25.24;51.53
48517;BME280;34310;51.904;4.256;2023-08-17T01:49:32;102165.09;;;25.22;51.69
48517;BME280;34310;51.904;4.256;2023-08-17T01:51:59;102153.44;;;25.16;51.70
48517;BME280;34310;51.904;4.256;2023-08-17T01:54:25;102150.84;;;25.17;51.67
48517;BME280;34310;51.904;4.256;2023-08-17T01:56:52;102167.69;;;25.21;51.79
48517;BME280;34310;51.904;4.256;2023-08-17T01:59:18;102167.66;;;25.19;51.52
48517;BME280;34310;51.904;4.256;2023-08-17T02:01:45;102166.75;;;25.19;51.66
48517;BME280;34310;51.904;4.256;2023-08-17T02:04:11;102155.06;;;25.12;51.84
48517;BME280;34310;51.904;4.256;2023-08-17T02:06:37;102165.84;;;25.18;51.74
48517;BME280;34310;51.904;4.256;2023-08-17T02:09:04;102164.91;;;25.16;51.62
48517;BME280;34310;51.904;4.256;2023-08-17T02:11:30;102165.81;;;25.17;51.71
48517;BME280;34310;51.904;4.256;2023-08-17T02:13:57;102167.47;;;25.15;51.55
48517;BME280;34310;51.904;4.256;2023-08-17T02:16:23;102168.31;;;25.14;51.57
48517;BME280;34310;51.904;4.256;2023-08-17T02:18:50;102170.97;;;25.14;51.79
48517;BME280;34310;51.904;4.256;2023-08-17T02:21:16;102163.84;;;25.11;51.89
48517;BME280;34310;51.904;4.256;2023-08-17T02:23:43;102163.88;;;25.13;51.79
48517;BME280;34310;51.904;4.256;2023-08-17T02:26:09;102161.25;;;25.13;51.65
48517;BME280;34310;51.904;4.256;2023-08-17T02:28:36;102163.84;;;25.11;51.79
48517;BME280;34310;51.904;4.256;2023-08-17T02:31:02;102154.06;;;25.09;51.85
48517;BME280;34310;51.904;4.256;2023-08-17T02:33:29;102162.03;;;25.10;51.73
48517;BME280;34310;51.904;4.256;2023-08-17T02:35:55;102138.03;;;25.02;51.72
48517;BME280;34310;51.904;4.256;2023-08-17T02:38:22;102153.16;;;25.08;51.82
48517;BME280;34310;51.904;4.256;2023-08-17T02:40:49;102160.19;;;25.08;51.95
48517;BME280;34310;51.904;4.256;2023-08-17T02:43:15;102151.22;;;25.02;51.72
48517;BME280;34310;51.904;4.256;2023-08-17T02:45:42;102145.94;;;25.02;51.71
48517;BME280;34310;51.904;4.256;2023-08-17T02:48:08;102148.63;;;25.04;51.91
48517;BME280;34310;51.904;4.256;2023-08-17T02:50:35;102160.91;;;25.02;51.80
48517;BME280;34310;51.904;4.256;2023-08-17T02:53:02;102149.34;;;24.98;51.91
48517;BME280;34310;51.904;4.256;2023-08-17T02:55:28;102156.53;;;25.02;52.12
48517;BME280;34310;51.904;4.256;2023-08-17T02:57:54;102143.97;;;24.97;51.95
48517;BME280;34310;51.904;4.256;2023-08-17T03:00:21;102141.25;;;24.94;51.84
48517;BME280;34310;51.904;4.256;2023-08-17T03:02:48;102145.91;;;25.01;51.96
48517;BME280;34310;51.904;4.256;2023-08-17T03:05:14;102149.34;;;24.98;52.15
48517;BME280;34310;51.904;4.256;2023-08-17T03:07:41;102150.25;;;24.99;52.12
48517;BME280;34310;51.904;4.256;2023-08-17T03:10:07;102152.88;;;24.99;51.91
48517;BME280;34310;51.904;4.256;2023-08-17T03:12:34;102147.50;;;24.97;51.91
48517;BME280;34310;51.904;4.256;2023-08-17T03:15:00;102150.16;;;24.97;51.97
48517;BME280;34310;51.904;4.256;2023-08-17T03:17:27;102146.47;;;24.92;52.06
48517;BME280;34310;51.904;4.256;2023-08-17T03:19:54;102156.28;;;24.96;51.88
48517;BME280;34310;51.904;4.256;2023-08-17T03:22:20;102148.31;;;24.95;51.92
48517;BME280;34310;51.904;4.256;2023-08-17T03:24:47;102142.97;;;24.93;51.99
48517;BME280;34310;51.904;4.256;2023-08-17T03:27:13;102153.56;;;24.93;52.17
48517;BME280;34310;51.904;4.256;2023-08-17T03:29:40;102152.66;;;24.93;52.09
48517;BME280;34310;51.904;4.256;2023-08-17T03:32:06;102156.16;;;24.92;52.38
48517;BME280;34310;51.904;4.256;2023-08-17T03:34:33;102151.75;;;24.92;52.03
48517;BME280;34310;51.904;4.256;2023-08-17T03:36:59;102142.69;;;24.86;52.03
48517;BME280;34310;51.904;4.256;2023-08-17T03:39:25;102149.06;;;24.91;52.04
48517;BME280;34310;51.904;4.256;2023-08-17T03:41:52;102149.91;;;24.90;52.07
48517;BME280;34310;51.904;4.256;2023-08-17T03:44:18;102152.56;;;24.90;52.23
48517;BME280;34310;51.904;4.256;2023-08-17T03:46:45;102152.56;;;24.90;52.16
48517;BME280;34310;51.904;4.256;2023-08-17T03:49:11;102141.75;;;24.84;52.18
48517;BME280;34310;51.904;4.256;2023-08-17T03:51:38;102148.06;;;24.87;52.35
48517;BME280;34310;51.904;4.256;2023-08-17T03:54:04;102153.28;;;24.86;52.33
48517;BME280;34310;51.904;4.256;2023-08-17T03:56:31;102147.94;;;24.84;52.39
48517;BME280;34310;51.904;4.256;2023-08-17T03:58:58;102140.84;;;24.83;52.43
48517;BME280;34310;51.904;4.256;2023-08-17T04:01:24;102148.00;;;24.86;52.32
48517;BME280;34310;51.904;4.256;2023-08-17T04:03:51;102154.13;;;24.85;52.26
48517;BME280;34310;51.904;4.256;2023-08-17T04:06:17;102147.03;;;24.84;52.37
48517;BME280;34310;51.904;4.256;2023-08-17T04:08:44;102147.00;;;24.82;52.49
48517;BME280;34310;51.904;4.256;2023-08-17T04:11:10;102145.94;;;24.77;52.28
48517;BME280;34310;51.904;4.256;2023-08-17T04:13:37;102136.06;;;24.71;52.39
48517;BME280;34310;51.904;4.256;2023-08-17T04:16:03;102145.91;;;24.76;52.36
48517;BME280;34310;51.904;4.256;2023-08-17T04:18:30;102151.34;;;24.80;52.38
48517;BME280;34310;51.904;4.256;2023-08-17T04:20:56;102135.28;;;24.74;52.25
48517;BME280;34310;51.904;4.256;2023-08-17T04:23:23;102157.50;;;24.81;52.31
48517;BME280;34310;51.904;4.256;2023-08-17T04:25:49;102146.75;;;24.75;52.32
48517;BME280;34310;51.904;4.256;2023-08-17T04:28:16;102151.22;;;24.77;52.49
48517;BME280;34310;51.904;4.256;2023-08-17T04:30:42;102149.38;;;24.75;52.50
48517;BME280;34310;51.904;4.256;2023-08-17T04:33:09;102152.97;;;24.77;52.42
48517;BME280;34310;51.904;4.256;2023-08-17T04:35:36;102156.47;;;24.76;52.56
48517;BME280;34310;51.904;4.256;2023-08-17T04:38:02;102152.91;;;24.75;52.59
48517;BME280;34310;51.904;4.256;2023-08-17T04:40:29;102143.22;;;24.74;52.73
48517;BME280;34310;51.904;4.256;2023-08-17T04:42:55;102151.97;;;24.73;52.61
48517;BME280;34310;51.904;4.256;2023-08-17T04:45:22;102151.09;;;24.73;52.41
48517;BME280;34310;51.904;4.256;2023-08-17T04:47:49;102150.19;;;24.72;52.49
48517;BME280;34310;51.904;4.256;2023-08-17T04:50:15;102148.38;;;24.71;52.72
48517;BME280;34310;51.904;4.256;2023-08-17T04:52:43;102149.22;;;24.70;52.67
48517;BME280;34310;51.904;4.256;2023-08-17T04:55:10;102146.59;;;24.70;52.73
48517;BME280;34310;51.904;4.256;2023-08-17T04:57:37;102154.53;;;24.70;52.58
48517;BME280;34310;51.904;4.256;2023-08-17T05:00:05;102144.81;;;24.69;52.72
48517;BME280;34310;51.904;4.256;2023-08-17T05:02:31;102146.53;;;24.68;52.69
48517;BME280;34310;51.904;4.256;2023-08-17T05:04:58;102134.00;;;24.61;52.63
48517;BME280;34310;51.904;4.256;2023-08-17T05:07:25;102136.63;;;24.61;52.70
48517;BME280;34310;51.904;4.256;2023-08-17T05:09:51;102137.56;;;24.63;52.67
48517;BME280;34310;51.904;4.256;2023-08-17T05:12:18;102142.06;;;24.66;52.64
48517;BME280;34310;51.904;4.256;2023-08-17T05:14:44;102142.97;;;24.66;52.64
48517;BME280;34310;51.904;4.256;2023-08-17T05:17:11;102143.81;;;24.65;52.59
48517;BME280;34310;51.904;4.256;2023-08-17T05:19:37;102126.69;;;24.54;52.78
48517;BME280;34310;51.904;4.256;2023-08-17T05:22:04;102142.84;;;24.63;52.87
48517;BME280;34310;51.904;4.256;2023-08-17T05:24:30;102142.84;;;24.63;52.90
48517;BME280;34310;51.904;4.256;2023-08-17T05:26:57;102135.69;;;24.59;52.90
48517;BME280;34310;51.904;4.256;2023-08-17T05:29:23;102142.84;;;24.63;52.92
48517;BME280;34310;51.904;4.256;2023-08-17T05:31:50;102141.06;;;24.62;52.99
48517;BME280;34310;51.904;4.256;2023-08-17T05:34:16;102132.19;;;24.60;52.85
48517;BME280;34310;51.904;4.256;2023-08-17T05:36:43;102141.97;;;24.63;53.07
48517;BME280;34310;51.904;4.256;2023-08-17T05:39:09;102146.19;;;24.58;52.90
48517;BME280;34310;51.904;4.256;2023-08-17T05:41:36;102149.84;;;24.61;53.03
48517;BME280;34310;51.904;4.256;2023-08-17T05:44:02;102148.03;;;24.60;52.97
48517;BME280;34310;51.904;4.256;2023-08-17T05:46:29;102148.03;;;24.60;52.98
48517;BME280;34310;51.904;4.256;2023-08-17T05:48:55;102148.03;;;24.60;52.85
48517;BME280;34310;51.904;4.256;2023-08-17T05:51:22;102145.41;;;24.60;53.08
48517;BME280;34310;51.904;4.256;2023-08-17T05:53:48;102141.81;;;24.58;53.12
48517;BME280;34310;51.904;4.256;2023-08-17T05:56:15;102151.47;;;24.58;53.16
48517;BME280;34310;51.904;4.256;2023-08-17T05:58:41;102142.63;;;24.57;53.14
48517;BME280;34310;51.904;4.256;2023-08-17T06:01:11;102147.91;;;24.57;53.06
48517;BME280;34310;51.904;4.256;2023-08-17T06:03:38;102141.72;;;24.57;53.13
48517;BME280;34310;51.904;4.256;2023-08-17T06:06:04;102142.53;;;24.54;53.03
48517;BME280;34310;51.904;4.256;2023-08-17T06:08:31;102152.22;;;24.55;53.17
48517;BME280;34310;51.904;4.256;2023-08-17T06:10:58;102156.66;;;24.56;53.00
48517;BME280;34310;51.904;4.256;2023-08-17T06:13:24;102157.50;;;24.55;53.11
48517;BME280;34310;51.904;4.256;2023-08-17T06:15:51;102157.47;;;24.54;53.34
48517;BME280;34310;51.904;4.256;2023-08-17T06:18:17;102161.84;;;24.53;53.13
48517;BME280;34310;51.904;4.256;2023-08-17T06:20:44;102166.28;;;24.54;53.29
48517;BME280;34310;51.904;4.256;2023-08-17T06:23:11;102159.06;;;24.49;53.01
48517;BME280;34310;51.904;4.256;2023-08-17T06:25:37;102172.47;;;24.55;53.23
48517;BME280;34310;51.904;4.256;2023-08-17T06:28:05;102160.78;;;24.48;53.17
48517;BME280;34310;51.904;4.256;2023-08-17T06:30:32;102168.81;;;24.51;52.97
48517;BME280;34310;51.904;4.256;2023-08-17T06:32:59;102170.63;;;24.52;53.22
48517;BME280;34310;51.904;4.256;2023-08-17T06:35:25;102163.53;;;24.51;53.27
48517;BME280;34310;51.904;4.256;2023-08-17T06:37:52;102166.19;;;24.51;53.12
48517;BME280;34310;51.904;4.256;2023-08-17T06:40:18;102159.16;;;24.52;53.07
48517;BME280;34310;51.904;4.256;2023-08-17T06:42:45;102146.63;;;24.46;53.07
48517;BME280;34310;51.904;4.256;2023-08-17T06:45:11;102154.72;;;24.51;53.17
48517;BME280;34310;51.904;4.256;2023-08-17T06:47:38;102158.25;;;24.51;53.00
48517;BME280;34310;51.904;4.256;2023-08-17T06:50:04;102161.75;;;24.50;53.18
48517;BME280;34310;51.904;4.256;2023-08-17T06:52:31;102150.97;;;24.44;53.02
48517;BME280;34310;51.904;4.256;2023-08-17T06:54:57;102159.94;;;24.49;53.24
48517;BME280;34310;51.904;4.256;2023-08-17T06:57:24;102157.25;;;24.48;52.98
48517;BME280;34310;51.904;4.256;2023-08-17T06:59:51;102165.22;;;24.49;53.33
48517;BME280;34310;51.904;4.256;2023-08-17T07:02:17;102160.84;;;24.50;53.06
48517;BME280;34310;51.904;4.256;2023-08-17T07:04:44;102158.94;;;24.46;53.07
48517;BME280;34310;51.904;4.256;2023-08-17T07:07:10;102159.91;;;24.48;53.52
48517;BME280;34310;51.904;4.256;2023-08-17T07:09:37;102163.44;;;24.48;53.27
48517;BME280;34310;51.904;4.256;2023-08-17T07:12:03;102159.00;;;24.47;53.12
48517;BME280;34310;51.904;4.256;2023-08-17T07:14:30;102165.19;;;24.48;53.25
48517;BME280;34310;51.904;4.256;2023-08-17T07:16:56;102159.91;;;24.48;53.18
48517;BME280;34310;51.904;4.256;2023-08-17T07:19:23;102163.44;;;24.48;53.41
48517;BME280;34310;51.904;4.256;2023-08-17T07:22:09;102152.72;;;24.44;53.21
48517;BME280;34310;51.904;4.256;2023-08-17T07:24:36;102157.19;;;24.46;53.28
48517;BME280;34310;51.904;4.256;2023-08-17T07:27:02;102161.59;;;24.46;53.56
48517;BME280;34310;51.904;4.256;2023-08-17T07:29:29;102167.75;;;24.46;53.69
48517;BME280;34310;51.904;4.256;2023-08-17T07:31:55;102159.91;;;24.48;53.37
48517;BME280;34310;51.904;4.256;2023-08-17T07:34:22;102152.78;;;24.45;53.51
48517;BME280;34310;51.904;4.256;2023-08-17T07:36:48;102155.31;;;24.42;53.49
48517;BME280;34310;51.904;4.256;2023-08-17T07:39:15;102138.41;;;24.37;53.13
48517;BME280;34310;51.904;4.256;2023-08-17T07:41:41;102156.47;;;24.50;53.42
48517;BME280;34310;51.904;4.256;2023-08-17T07:44:08;102159.19;;;24.53;53.41
48517;BME280;34310;51.904;4.256;2023-08-17T07:46:34;102157.41;;;24.52;53.31
48517;BME280;34310;51.904;4.256;2023-08-17T07:49:01;102159.19;;;24.53;53.45
48517;BME280;34310;51.904;4.256;2023-08-17T07:51:27;102152.56;;;24.39;53.05
48517;BME280;34310;51.904;4.256;2023-08-17T07:53:53;102158.63;;;24.36;52.36
48517;BME280;34310;51.904;4.256;2023-08-17T07:56:20;102148.53;;;24.26;52.27
48517;BME280;34310;51.904;4.256;2023-08-17T07:58:46;102158.41;;;24.30;52.17
48517;BME280;34310;51.904;4.256;2023-08-17T08:01:13;102143.09;;;24.22;52.41
48517;BME280;34310;51.904;4.256;2023-08-17T08:03:39;102150.81;;;24.39;52.17
48517;BME280;34310;51.904;4.256;2023-08-17T08:06:06;102152.78;;;24.45;52.25
48517;BME280;34310;51.904;4.256;2023-08-17T08:08:32;102155.41;;;24.45;52.26
48517;BME280;34310;51.904;4.256;2023-08-17T08:10:59;102154.63;;;24.48;52.28
48517;BME280;34310;51.904;4.256;2023-08-17T08:13:25;102149.34;;;24.48;52.16
48517;BME280;34310;51.904;4.256;2023-08-17T08:15:52;102146.75;;;24.49;52.21
48517;BME280;34310;51.904;4.256;2023-08-17T08:18:18;102148.50;;;24.49;52.62
48517;BME280;34310;51.904;4.256;2023-08-17T08:20:45;102154.78;;;24.52;52.06
48517;BME280;34310;51.904;4.256;2023-08-17T08:23:11;102152.13;;;24.52;52.34
48517;BME280;34310;51.904;4.256;2023-08-17T08:25:38;102146.81;;;24.51;52.08
48517;BME280;34310;51.904;4.256;2023-08-17T08:28:04;102137.97;;;24.50;51.96
48517;BME280;34310;51.904;4.256;2023-08-17T08:30:31;102139.72;;;24.50;52.29
48517;BME280;34310;51.904;4.256;2023-08-17T08:32:58;102139.81;;;24.53;51.95
48517;BME280;34310;51.904;4.256;2023-08-17T08:35:24;102142.41;;;24.51;52.13
48517;BME280;34310;51.904;4.256;2023-08-17T08:37:51;102137.19;;;24.53;52.23
48517;BME280;34310;51.904;4.256;2023-08-17T08:40:17;102132.75;;;24.52;52.20
48517;BME280;34310;51.904;4.256;2023-08-17T08:42:44;102135.38;;;24.52;52.03
48517;BME280;34310;51.904;4.256;2023-08-17T08:45:10;102135.53;;;24.56;52.49
48517;BME280;34310;51.904;4.256;2023-08-17T08:47:37;102133.88;;;24.58;52.28
48517;BME280;34310;51.904;4.256;2023-08-17T08:50:05;102133.88;;;24.58;52.36
48517;BME280;34310;51.904;4.256;2023-08-17T08:52:37;102126.91;;;24.60;52.28
48517;BME280;34310;51.904;4.256;2023-08-17T08:55:15;102123.41;;;24.61;52.12
48517;BME280;34310;51.904;4.256;2023-08-17T08:57:43;102126.00;;;24.60;52.30
48517;BME280;34310;51.904;4.256;2023-08-17T09:00:18;102105.44;;;24.51;52.47
48517;BME280;34310;51.904;4.256;2023-08-17T09:02:45;102133.13;;;24.62;52.54
48517;BME280;34310;51.904;4.256;2023-08-17T09:05:12;102124.38;;;24.63;52.51
48517;BME280;34310;51.904;4.256;2023-08-17T09:07:40;102122.69;;;24.65;52.60
48517;BME280;34310;51.904;4.256;2023-08-17T09:10:11;102117.41;;;24.65;52.56
48517;BME280;34310;51.904;4.256;2023-08-17T09:12:39;102112.06;;;24.64;52.47
48517;BME280;34310;51.904;4.256;2023-08-17T09:15:07;102120.78;;;24.61;52.49
48517;BME280;34310;51.904;4.256;2023-08-17T09:17:34;102115.44;;;24.60;52.83
48517;BME280;34310;51.904;4.256;2023-08-17T09:20:01;102117.19;;;24.59;52.79
48517;BME280;34310;51.904;4.256;2023-08-17T09:22:42;102118.19;;;24.63;52.83
48517;BME280;34310;51.904;4.256;2023-08-17T09:25:10;102113.06;;;24.67;52.92
48517;BME280;34310;51.904;4.256;2023-08-17T09:27:38;102112.31;;;24.71;52.76
48517;BME280;34310;51.904;4.256;2023-08-17T09:30:06;102109.72;;;24.73;52.94
48517;BME280;34310;51.904;4.256;2023-08-17T09:32:33;102101.00;;;24.76;52.73
48517;BME280;34310;51.904;4.256;2023-08-17T09:35:01;102101.94;;;24.78;52.41
48517;BME280;34310;51.904;4.256;2023-08-17T09:37:27;102082.50;;;24.76;52.58
48517;BME280;34310;51.904;4.256;2023-08-17T09:39:55;102090.63;;;24.82;52.62
48517;BME280;34310;51.904;4.256;2023-08-17T09:42:22;102086.22;;;24.82;52.72
48517;BME280;34310;51.904;4.256;2023-08-17T09:44:49;102088.91;;;24.84;52.50
48517;BME280;34310;51.904;4.256;2023-08-17T09:47:16;102080.00;;;24.80;52.83
48517;BME280;34310;51.904;4.256;2023-08-17T09:49:57;102082.78;;;24.85;52.91
48517;BME280;34310;51.904;4.256;2023-08-17T09:52:24;102085.38;;;24.83;52.95
48517;BME280;34310;51.904;4.256;2023-08-17T09:54:52;102092.59;;;24.87;53.08
48517;BME280;34310;51.904;4.256;2023-08-17T09:57:19;102095.38;;;24.92;53.10
48517;BME280;34310;51.904;4.256;2023-08-17T09:59:48;102091.09;;;24.95;52.90
48517;BME280;34310;51.904;4.256;2023-08-17T10:02:18;102090.28;;;24.98;53.27
48517;BME280;34310;51.904;4.256;2023-08-17T10:04:49;102096.53;;;25.00;53.01
48517;BME280;34310;51.904;4.256;2023-08-17T10:07:21;102071.75;;;24.96;53.03
48517;BME280;34310;51.904;4.256;2023-08-17T10:09:56;102078.91;;;24.99;53.00
48517;BME280;34310;51.904;4.256;2023-08-17T10:12:28;102082.56;;;25.04;53.22
48517;BME280;34310;51.904;4.256;2023-08-17T10:15:03;102074.59;;;25.02;53.15
48517;BME280;34310;51.904;4.256;2023-08-17T10:17:43;102078.09;;;25.01;53.09
48517;BME280;34310;51.904;4.256;2023-08-17T10:22:51;102084.50;;;25.10;52.84
48517;BME280;34310;51.904;4.256;2023-08-17T10:25:21;102081.81;;;25.08;52.90
48517;BME280;34310;51.904;4.256;2023-08-17T10:27:49;102069.47;;;25.07;52.87
48517;BME280;34310;51.904;4.256;2023-08-17T10:30:17;102073.97;;;25.11;52.95
48517;BME280;34310;51.904;4.256;2023-08-17T10:32:43;102074.06;;;25.14;53.04
48517;BME280;34310;51.904;4.256;2023-08-17T10:35:10;102083.97;;;25.20;52.87
48517;BME280;34310;51.904;4.256;2023-08-17T10:37:38;102081.38;;;25.21;52.94
48517;BME280;34310;51.904;4.256;2023-08-17T10:40:05;102076.03;;;25.20;53.30
48517;BME280;34310;51.904;4.256;2023-08-17T10:42:33;102075.28;;;25.24;53.17
48517;BME280;34310;51.904;4.256;2023-08-17T10:45:00;102078.81;;;25.24;53.44
48517;BME280;34310;51.904;4.256;2023-08-17T10:47:29;102074.38;;;25.23;53.38
48517;BME280;34310;51.904;4.256;2023-08-17T10:52:34;102075.50;;;25.31;53.27
48517;BME280;34310;51.904;4.256;2023-08-17T10:55:03;102069.28;;;25.29;53.40
48517;BME280;34310;51.904;4.256;2023-08-17T10:57:38;102075.53;;;25.33;53.31
48517;BME280;34310;51.904;4.256;2023-08-17T11:02:34;102077.34;;;25.34;53.60
48517;BME280;34310;51.904;4.256;2023-08-17T11:05:02;102074.75;;;25.36;53.45
48517;BME280;34310;51.904;4.256;2023-08-17T11:07:41;102074.91;;;25.42;53.28
48517;BME280;34310;51.904;4.256;2023-08-17T11:10:27;102069.66;;;25.43;53.10
48517;BME280;34310;51.904;4.256;2023-08-17T11:12:58;102075.22;;;25.51;53.29
48517;BME280;34310;51.904;4.256;2023-08-17T11:15:25;102072.53;;;25.49;53.04
48517;BME280;34310;51.904;4.256;2023-08-17T11:17:52;102056.41;;;25.42;53.23
48517;BME280;34310;51.904;4.256;2023-08-17T11:20:19;102056.53;;;25.45;53.25
48517;BME280;34310;51.904;4.256;2023-08-17T11:22:46;102045.69;;;25.37;53.32
48517;BME280;34310;51.904;4.256;2023-08-17T11:25:13;102073.59;;;25.56;52.99
48517;BME280;34310;51.904;4.256;2023-08-17T11:27:39;102060.31;;;25.54;52.98
48517;BME280;34310;51.904;4.256;2023-08-17T11:30:06;102067.63;;;25.63;52.85
48517;BME280;34310;51.904;4.256;2023-08-17T11:32:34;102064.25;;;25.67;53.07
48517;BME280;34310;51.904;4.256;2023-08-17T11:35:01;102066.88;;;25.67;52.92
48517;BME280;34310;51.904;4.256;2023-08-17T11:37:28;102062.41;;;25.66;53.04
48517;BME280;34310;51.904;4.256;2023-08-17T11:39:54;102063.38;;;25.68;52.78
48517;BME280;34310;51.904;4.256;2023-08-17T11:42:21;102066.91;;;25.69;52.86
48517;BME280;34310;51.904;4.256;2023-08-17T11:44:48;102061.59;;;25.67;53.00
48517;BME280;34310;51.904;4.256;2023-08-17T11:47:15;102048.28;;;25.66;53.01
48517;BME280;34310;51.904;4.256;2023-08-17T11:49:41;102045.59;;;25.64;52.96
48517;BME280;34310;51.904;4.256;2023-08-17T11:52:11;102057.25;;;25.69;52.96
48517;BME280;34310;51.904;4.256;2023-08-17T11:54:40;102044.81;;;25.67;52.93
48517;BME280;34310;51.904;4.256;2023-08-17T11:57:07;102048.28;;;25.66;52.88
48517;BME280;34310;51.904;4.256;2023-08-17T11:59:34;102056.59;;;25.76;52.97
48517;BME280;34310;51.904;4.256;2023-08-17T12:02:00;102059.28;;;25.78;52.84
48517;BME280;34310;51.904;4.256;2023-08-17T12:04:27;102059.22;;;25.76;52.64
48517;BME280;34310;51.904;4.256;2023-08-17T12:06:54;102049.50;;;25.75;52.83
48517;BME280;34310;51.904;4.256;2023-08-17T12:09:21;102047.78;;;25.77;52.70
48517;BME280;34310;51.904;4.256;2023-08-17T12:11:48;102038.06;;;25.76;52.58
48517;BME280;34310;51.904;4.256;2023-08-17T12:14:14;102036.41;;;25.80;52.70
48517;BME280;34310;51.904;4.256;2023-08-17T12:16:48;102039.31;;;25.90;52.70
48517;BME280;34310;51.904;4.256;2023-08-17T12:19:14;102048.25;;;25.94;52.54
48517;BME280;34310;51.904;4.256;2023-08-17T12:21:42;102044.75;;;25.95;52.62
48517;BME280;34310;51.904;4.256;2023-08-17T12:24:09;102037.78;;;25.99;52.86
48517;BME280;34310;51.904;4.256;2023-08-17T12:26:36;102033.41;;;26.01;52.75
48517;BME280;34310;51.904;4.256;2023-08-17T12:29:04;102031.75;;;26.03;52.90
48517;BME280;34310;51.904;4.256;2023-08-17T12:31:31;102030.84;;;26.02;52.93
48517;BME280;34310;51.904;4.256;2023-08-17T12:33:58;102026.38;;;26.01;52.82
48517;BME280;34310;51.904;4.256;2023-08-17T12:36:24;102020.19;;;26.01;52.88
48517;BME280;34310;51.904;4.256;2023-08-17T12:38:51;102023.72;;;26.01;53.09
48517;BME280;34310;51.904;4.256;2023-08-17T12:41:17;102028.97;;;26.00;53.18
48517;BME280;34310;51.904;4.256;2023-08-17T12:43:44;102024.69;;;26.03;53.25
48517;BME280;34310;51.904;4.256;2023-08-17T12:46:11;102016.88;;;26.08;53.29
48517;BME280;34310;51.904;4.256;2023-08-17T12:48:38;102020.47;;;26.11;53.35
48517;BME280;34310;51.904;4.256;2023-08-17T12:51:04;102007.22;;;26.10;53.25
48517;BME280;34310;51.904;4.256;2023-08-17T12:53:31;102019.69;;;26.15;53.25
48517;BME280;34310;51.904;4.256;2023-08-17T12:55:58;102023.31;;;26.19;53.43
48517;BME280;34310;51.904;4.256;2023-08-17T12:58:25;102021.63;;;26.22;53.23
48517;BME280;34310;51.904;4.256;2023-08-17T13:00:51;102034.03;;;26.23;53.15